Skip Navigation LinksHome page > Weather > Current weather Skip Navigation Links

Current Weather

Heathrow, London

For information only: do not use for flight planning or navigation.
Latest weather
Observation time Wednesday, May 27, 2015 8:20 AM BST
Local time Wednesday, May 27, 2015 8:34 AM BST
Flight conditions Visual Meteorological Conditions
Winds
Wind direction North-Northwest (330°)
Winds variable from 290° to 20°
Wind speed 7 mph
Visibility 6.2 mi.
Sky condition
Ceiling unlimited
Sky clear
Temperature 54°F
Dewpoint 41°F
Altimeter 30.30 in.Hg
Derived measurements
Relative humidity 62%
Density altitude -659 ft.
Remarks
Corrected report.
Ceiling and visibility OK.
No significant changes expected in the next two hours.
METAR COR EGLL 270720Z 33006KT 290V020 CAVOK 12/05 Q1026 NOSIG

Settings

Location code

InnerDrive.Weather 4.0.5567.0 Release CLR 4.0.30319.34014
Copyright ©2015 Inner Drive Technology. All rights reserved. Portions Copyright ©1986-2015 David Braverman.

Find weather

Site navigation


Skip Navigation Links

Place info

Page info

PayPal - The safer, easier way to pay online!

Return home.

Copyright ©2015 Inner Drive Technology. Purveyors of fine, hand-crafted computer software. Page printed 2015-05-27T07:34:46 UTC.